createdAt,value
2022-10-18T00:02:04.185Z,10.20
2022-10-18T00:04:30.824Z,10.14
2022-10-18T00:06:57.284Z,10.11
2022-10-18T00:09:23.705Z,10.03
2022-10-18T00:11:50.505Z,9.98
2022-10-18T00:14:17.058Z,9.98
2022-10-18T00:16:43.534Z,9.89
2022-10-18T00:19:09.917Z,9.85
2022-10-18T00:21:36.587Z,9.82
2022-10-18T00:24:03.339Z,9.78
2022-10-18T00:26:30.743Z,9.70
2022-10-18T00:29:02.789Z,9.69
2022-10-18T00:31:35.434Z,9.65
2022-10-18T00:34:07.248Z,9.61
2022-10-18T00:36:34.445Z,9.50
2022-10-18T00:39:02.382Z,9.47
2022-10-18T00:41:31.050Z,9.36
2022-10-18T00:44:21.691Z,9.27
2022-10-18T00:46:49.284Z,9.19
2022-10-18T00:49:20.501Z,9.14
2022-10-18T00:51:51.272Z,9.11
2022-10-18T00:54:19.347Z,9.13
2022-10-18T00:56:46.010Z,9.11
2022-10-18T00:59:14.985Z,9.04
2022-10-18T01:01:41.635Z,8.99
2022-10-18T01:04:08.135Z,8.97
2022-10-18T01:06:41.681Z,8.90
2022-10-18T01:09:32.185Z,8.84
2022-10-18T01:12:21.048Z,8.80
2022-10-18T01:15:21.772Z,8.76
2022-10-18T01:18:00.014Z,8.73
2022-10-18T01:20:57.044Z,8.73
2022-10-18T01:23:59.672Z,8.70
2022-10-18T01:26:40.737Z,8.72
2022-10-18T01:29:33.369Z,8.68
2022-10-18T01:32:04.236Z,8.68
2022-10-18T01:34:35.889Z,8.66
2022-10-18T01:37:05.117Z,8.71
2022-10-18T01:39:36.325Z,8.70
2022-10-18T01:42:07.548Z,8.69
2022-10-18T01:44:36.581Z,8.68
2022-10-18T01:47:05.613Z,8.66
2022-10-18T01:49:33.314Z,8.63
2022-10-18T01:51:59.724Z,8.67
2022-10-18T01:54:32.603Z,8.65
2022-10-18T01:57:20.123Z,8.64
2022-10-18T01:59:49.165Z,8.70
2022-10-18T02:02:28.947Z,8.71
2022-10-18T02:05:19.627Z,8.72
2022-10-18T02:08:12.079Z,8.69
2022-10-18T02:10:47.956Z,8.68
2022-10-18T02:13:18.197Z,8.63
2022-10-18T02:15:48.502Z,8.65
2022-10-18T02:18:22.019Z,8.65
2022-10-18T02:20:49.400Z,8.59
2022-10-18T02:23:19.887Z,8.53
2022-10-18T02:25:46.603Z,8.52
2022-10-18T02:28:13.093Z,8.46
2022-10-18T02:30:57.671Z,8.42
2022-10-18T02:33:50.077Z,8.33
2022-10-18T02:36:23.803Z,8.27
2022-10-18T02:38:55.741Z,8.24
2022-10-18T02:41:27.055Z,8.23
2022-10-18T02:43:53.956Z,8.19
2022-10-18T02:46:20.650Z,8.16
2022-10-18T02:48:47.076Z,8.13
2022-10-18T02:51:13.462Z,8.13
2022-10-18T02:53:39.896Z,8.15
2022-10-18T02:56:06.494Z,8.24
2022-10-18T02:58:32.869Z,8.27
2022-10-18T03:00:59.320Z,8.24
2022-10-18T03:03:25.666Z,8.23
2022-10-18T03:05:52.664Z,8.22
2022-10-18T03:08:19.713Z,8.16
2022-10-18T03:10:46.940Z,8.15
2022-10-18T03:13:13.474Z,8.11
2022-10-18T03:15:40.095Z,8.09
2022-10-18T03:18:06.483Z,8.05
2022-10-18T03:20:34.096Z,8.01
2022-10-18T03:23:00.447Z,8.02
2022-10-18T03:25:26.868Z,8.01
2022-10-18T03:27:53.197Z,7.95
2022-10-18T03:30:19.605Z,7.87
2022-10-18T03:32:45.945Z,7.88
2022-10-18T03:35:12.293Z,7.92
2022-10-18T03:37:38.726Z,7.86
2022-10-18T03:40:05.782Z,7.76
2022-10-18T03:42:32.253Z,7.65
2022-10-18T03:44:58.725Z,7.61
2022-10-18T03:47:25.067Z,7.56
2022-10-18T03:49:54.639Z,7.51
2022-10-18T03:52:23.581Z,7.43
2022-10-18T03:54:49.910Z,7.44
2022-10-18T03:57:16.493Z,7.44
2022-10-18T03:59:43.369Z,7.38
2022-10-18T04:02:09.784Z,7.29
2022-10-18T04:04:36.180Z,7.21
2022-10-18T04:07:02.521Z,7.15
2022-10-18T04:09:28.889Z,7.11
2022-10-18T04:11:55.217Z,7.11
2022-10-18T04:14:22.002Z,7.05
2022-10-18T04:16:48.606Z,7.00
2022-10-18T04:19:15.631Z,6.92
2022-10-18T04:21:42.001Z,6.88
2022-10-18T04:24:08.419Z,6.90
2022-10-18T04:26:34.867Z,6.86
2022-10-18T04:31:28.945Z,6.83
2022-10-18T04:33:55.341Z,6.76
2022-10-18T04:36:21.696Z,6.74
2022-10-18T04:38:48.060Z,6.69
2022-10-18T04:41:14.438Z,6.64
2022-10-18T04:43:40.824Z,6.60
2022-10-18T04:46:07.221Z,6.59
2022-10-18T04:48:33.577Z,6.56
2022-10-18T04:50:59.982Z,6.55
2022-10-18T04:53:26.363Z,6.56
2022-10-18T04:55:52.741Z,6.56
2022-10-18T04:58:19.439Z,6.56
2022-10-18T05:00:47.531Z,6.61
2022-10-18T05:03:14.647Z,6.63
2022-10-18T05:06:00.201Z,6.63
2022-10-18T05:08:27.961Z,6.59
2022-10-18T05:10:54.388Z,6.60
2022-10-18T05:13:20.826Z,6.59
2022-10-18T05:15:47.517Z,6.53
2022-10-18T05:18:13.876Z,6.51
2022-10-18T05:20:40.226Z,6.47
2022-10-18T05:23:06.678Z,6.43
2022-10-18T05:25:33.266Z,6.42
2022-10-18T05:28:03.415Z,6.39
2022-10-18T05:30:38.582Z,6.32
2022-10-18T05:33:05.694Z,6.36
2022-10-18T05:35:32.385Z,6.32
2022-10-18T05:37:58.736Z,6.27
2022-10-18T05:40:25.083Z,6.23
2022-10-18T05:42:52.015Z,6.15
2022-10-18T05:45:18.359Z,6.09
2022-10-18T05:47:44.896Z,6.07
2022-10-18T05:50:11.294Z,6.06
2022-10-18T05:52:37.634Z,6.05
2022-10-18T05:55:04.293Z,6.01
2022-10-18T05:57:31.002Z,6.00
2022-10-18T05:59:57.533Z,5.93
2022-10-18T06:02:23.893Z,5.87
2022-10-18T06:04:50.305Z,5.86
2022-10-18T06:07:16.827Z,5.90
2022-10-18T06:09:43.229Z,5.91
2022-10-18T06:12:09.781Z,5.95
2022-10-18T06:14:37.435Z,5.90
2022-10-18T06:17:04.391Z,5.83
2022-10-18T06:19:30.893Z,5.80
2022-10-18T06:21:57.272Z,5.82
2022-10-18T06:24:23.767Z,5.82
2022-10-18T06:26:50.283Z,5.81
2022-10-18T06:29:16.654Z,5.81
2022-10-18T06:31:43.024Z,5.85
2022-10-18T06:34:09.365Z,5.81
2022-10-18T06:36:35.712Z,5.80
2022-10-18T06:39:02.588Z,5.87
2022-10-18T06:41:28.958Z,5.96
2022-10-18T06:43:57.438Z,5.99
2022-10-18T06:46:24.396Z,6.05
2022-10-18T06:48:50.751Z,6.11
2022-10-18T06:51:18.227Z,6.14
2022-10-18T06:53:59.214Z,6.18
2022-10-18T06:56:25.998Z,6.30
2022-10-18T06:58:52.594Z,6.42
2022-10-18T07:01:19.671Z,6.52
2022-10-18T07:03:48.166Z,6.58
2022-10-18T07:06:17.700Z,6.64
2022-10-18T07:08:44.580Z,6.71
2022-10-18T07:11:19.902Z,6.78
2022-10-18T07:13:46.324Z,6.96
2022-10-18T07:16:17.461Z,7.12
2022-10-18T07:18:50.963Z,7.24
2022-10-18T07:21:22.565Z,7.46
2022-10-18T07:23:50.473Z,7.63
2022-10-18T07:26:19.584Z,7.72
2022-10-18T07:28:48.157Z,8.10
2022-10-18T07:31:14.885Z,8.53
2022-10-18T07:33:42.946Z,8.61
2022-10-18T07:36:11.683Z,8.74
2022-10-18T07:38:38.190Z,8.67
2022-10-18T07:41:06.993Z,8.80
2022-10-18T07:43:34.374Z,8.93
2022-10-18T07:46:03.262Z,9.05
2022-10-18T07:48:29.864Z,9.27
2022-10-18T07:50:59.721Z,9.39
2022-10-18T07:53:26.470Z,9.55
2022-10-18T07:55:56.331Z,9.89
2022-10-18T07:58:22.663Z,10.09
2022-10-18T08:00:49.002Z,10.26
2022-10-18T08:03:15.358Z,10.44
2022-10-18T08:05:41.699Z,10.69
2022-10-18T08:08:08.265Z,10.82
2022-10-18T08:10:35.991Z,11.05
2022-10-18T08:13:02.317Z,11.19
2022-10-18T08:15:28.658Z,11.28
2022-10-18T08:17:55.003Z,11.42
2022-10-18T08:20:30.411Z,11.59
2022-10-18T08:23:00.099Z,11.76
2022-10-18T08:25:27.908Z,11.93
2022-10-18T08:27:54.335Z,11.98
2022-10-18T08:30:20.772Z,12.16
2022-10-18T08:32:47.122Z,12.30
2022-10-18T08:35:13.511Z,12.43
2022-10-18T08:37:40.288Z,12.51
2022-10-18T08:40:07.242Z,12.67
2022-10-18T08:42:44.296Z,12.83
2022-10-18T08:45:29.747Z,12.90
2022-10-18T08:47:59.206Z,13.07
2022-10-18T08:50:35.281Z,13.41
2022-10-18T08:53:40.187Z,14.26
2022-10-18T08:56:18.775Z,13.80
2022-10-18T08:58:45.231Z,13.76
2022-10-18T09:01:37.745Z,13.65
2022-10-18T09:04:26.882Z,13.73
2022-10-18T09:07:03.170Z,14.02
2022-10-18T09:10:04.446Z,14.10
2022-10-18T09:13:03.613Z,14.16
2022-10-18T09:15:54.189Z,14.20
2022-10-18T09:18:39.209Z,14.23
2022-10-18T09:21:20.200Z,14.26
2022-10-18T09:23:49.366Z,14.44
2022-10-18T09:26:20.765Z,14.45
2022-10-18T09:29:15.916Z,14.50
2022-10-18T09:31:51.443Z,14.49
2022-10-18T09:34:36.590Z,14.58
2022-10-18T09:37:04.262Z,14.67
2022-10-18T09:39:37.283Z,14.73
2022-10-18T09:42:26.740Z,14.76
2022-10-18T09:45:02.023Z,14.83
2022-10-18T09:47:35.387Z,14.79
2022-10-18T09:50:25.333Z,14.87
2022-10-18T09:52:57.367Z,14.92
2022-10-18T09:55:30.667Z,14.96
2022-10-18T09:58:01.971Z,14.92
2022-10-18T10:00:34.487Z,14.94
2022-10-18T10:03:01.782Z,14.94
2022-10-18T10:05:28.198Z,14.96
2022-10-18T10:07:59.904Z,15.05
2022-10-18T10:10:28.527Z,15.03
2022-10-18T10:13:04.070Z,15.12
2022-10-18T10:15:35.278Z,15.25
2022-10-18T10:18:25.600Z,15.39
2022-10-18T10:20:55.037Z,15.42
2022-10-18T10:23:23.160Z,15.59
2022-10-18T10:25:53.292Z,15.46
2022-10-18T10:28:30.562Z,15.35
2022-10-18T10:31:24.904Z,15.44
2022-10-18T10:34:04.476Z,15.57
2022-10-18T10:36:32.425Z,15.74
2022-10-18T10:39:12.558Z,15.58
2022-10-18T10:41:41.253Z,15.57
2022-10-18T10:44:17.107Z,15.55
2022-10-18T10:46:44.481Z,15.53
2022-10-18T10:49:42.016Z,15.57
2022-10-18T10:52:26.955Z,15.76
2022-10-18T10:55:05.675Z,15.86
2022-10-18T10:57:38.507Z,16.22
2022-10-18T11:00:05.242Z,16.00
2022-10-18T11:02:34.975Z,15.92
2022-10-18T11:05:29.229Z,16.07
2022-10-18T11:08:01.976Z,15.80
2022-10-18T11:10:32.362Z,15.77
2022-10-18T11:13:23.730Z,16.01
2022-10-18T11:15:56.580Z,15.93
2022-10-18T11:18:32.556Z,15.94
2022-10-18T11:21:08.144Z,15.26
2022-10-18T11:23:37.260Z,15.45
2022-10-18T11:26:09.465Z,15.59
2022-10-18T11:29:16.155Z,15.86
2022-10-18T11:32:03.296Z,16.05
2022-10-18T11:34:55.643Z,16.03
2022-10-18T11:37:38.510Z,16.24
2022-10-18T11:40:46.309Z,15.96
2022-10-18T11:44:00.532Z,16.02
2022-10-18T11:46:37.596Z,16.64
2022-10-18T11:49:35.749Z,16.07
2022-10-18T11:52:19.858Z,16.03
2022-10-18T11:55:02.829Z,16.04
2022-10-18T11:57:58.696Z,15.77
2022-10-18T12:00:40.503Z,16.40
2022-10-18T12:03:33.441Z,16.78
2022-10-18T12:06:05.671Z,16.36
2022-10-18T12:08:39.850Z,16.96
2022-10-18T12:11:13.789Z,17.82
2022-10-18T12:13:57.689Z,18.47
2022-10-18T12:16:50.038Z,17.69
2022-10-18T12:19:27.300Z,16.63
2022-10-18T12:22:04.125Z,17.20
2022-10-18T12:24:31.918Z,19.27
2022-10-18T12:27:01.803Z,19.07
2022-10-18T12:29:35.630Z,17.93
2022-10-18T12:32:08.807Z,16.77
2022-10-18T12:34:43.501Z,16.99
2022-10-18T12:37:14.967Z,17.56
2022-10-18T12:40:08.975Z,17.67
2022-10-18T12:42:42.733Z,17.73
2022-10-18T12:45:35.359Z,18.95
2022-10-18T12:48:06.805Z,17.70
2022-10-18T12:50:39.294Z,17.15
2022-10-18T12:53:24.378Z,16.52
2022-10-18T12:55:51.833Z,18.88
2022-10-18T12:58:32.339Z,17.89
2022-10-18T13:01:04.628Z,16.51
2022-10-18T13:03:50.379Z,17.94
2022-10-18T13:06:16.887Z,18.10
2022-10-18T13:08:45.276Z,20.65
2022-10-18T13:11:11.616Z,21.66
2022-10-18T13:14:17.264Z,21.78
2022-10-18T13:16:54.232Z,23.00
2022-10-18T13:19:27.741Z,22.72
2022-10-18T13:22:15.597Z,22.06
2022-10-18T13:25:01.614Z,19.78
2022-10-18T13:27:54.283Z,20.76
2022-10-18T13:30:40.759Z,21.56
2022-10-18T13:33:52.351Z,21.83
2022-10-18T13:36:24.834Z,23.19
2022-10-18T13:38:55.559Z,22.40
2022-10-18T13:41:29.253Z,21.88
2022-10-18T13:44:16.533Z,19.20
2022-10-18T13:46:42.918Z,16.86
2022-10-18T13:49:40.381Z,16.35
2022-10-18T13:52:18.934Z,17.06
2022-10-18T13:55:30.870Z,19.84
2022-10-18T13:58:20.220Z,21.40
2022-10-18T14:00:52.628Z,19.59
2022-10-18T14:03:56.170Z,20.71
2022-10-18T14:06:28.164Z,21.61
2022-10-18T14:09:25.378Z,19.23
2022-10-18T14:12:14.701Z,18.57
2022-10-18T14:14:46.126Z,18.60
2022-10-18T14:17:47.641Z,17.18
2022-10-18T14:20:14.882Z,20.32
2022-10-18T14:22:48.056Z,19.92
2022-10-18T14:25:26.403Z,18.37
2022-10-18T14:28:08.958Z,20.15
2022-10-18T14:30:52.679Z,20.02
2022-10-18T14:33:33.471Z,17.62
2022-10-18T14:36:04.186Z,15.98
2022-10-18T14:38:31.142Z,15.30
2022-10-18T14:41:21.698Z,15.05
2022-10-18T14:43:49.139Z,14.78
2022-10-18T14:46:26.625Z,14.50
2022-10-18T14:49:04.065Z,14.26
2022-10-18T14:51:35.283Z,14.12
2022-10-18T14:54:02.454Z,14.05
2022-10-18T14:56:30.814Z,13.98
2022-10-18T14:59:01.799Z,13.94
2022-10-18T15:01:31.213Z,13.93
2022-10-18T15:04:05.180Z,13.86
2022-10-18T15:06:32.846Z,13.74
2022-10-18T15:09:01.801Z,13.67
2022-10-18T15:11:28.731Z,13.57
2022-10-18T15:14:00.669Z,13.50
2022-10-18T15:16:29.646Z,13.43
2022-10-18T15:19:28.740Z,13.39
2022-10-18T15:22:32.190Z,13.31
2022-10-18T15:25:14.812Z,13.26
2022-10-18T15:27:45.059Z,13.29
2022-10-18T15:30:19.278Z,13.38
2022-10-18T15:32:51.809Z,13.46
2022-10-18T15:35:44.574Z,13.36
2022-10-18T15:38:31.843Z,13.30
2022-10-18T15:40:58.594Z,13.18
2022-10-18T15:43:27.821Z,13.08
2022-10-18T15:45:54.133Z,13.18
2022-10-18T15:48:40.137Z,13.14
2022-10-18T15:51:08.857Z,13.06
2022-10-18T15:53:54.281Z,12.98
2022-10-18T15:56:40.022Z,12.82
2022-10-18T15:59:22.220Z,12.69
2022-10-18T16:01:48.857Z,12.54
2022-10-18T16:04:25.761Z,12.54
2022-10-18T16:06:54.121Z,12.51
2022-10-18T16:09:21.837Z,12.44
2022-10-18T16:11:55.587Z,12.30
2022-10-18T16:14:22.905Z,12.27
2022-10-18T16:16:56.045Z,12.25
2022-10-18T16:19:22.805Z,12.12
2022-10-18T16:21:51.320Z,12.04
2022-10-18T16:24:18.208Z,11.92
2022-10-18T16:26:44.750Z,11.87
2022-10-18T16:29:14.365Z,11.81
2022-10-18T16:31:40.952Z,11.78
2022-10-18T16:34:10.740Z,11.92
2022-10-18T16:36:37.677Z,11.91
2022-10-18T16:39:09.195Z,11.87
2022-10-18T16:41:35.567Z,11.87
2022-10-18T16:44:01.936Z,11.89
2022-10-18T16:46:31.125Z,11.87
2022-10-18T16:48:57.686Z,11.83
2022-10-18T16:51:24.654Z,11.68
2022-10-18T16:53:53.299Z,11.59
2022-10-18T16:56:22.598Z,11.52
2022-10-18T16:58:49.210Z,11.41
2022-10-18T17:01:18.912Z,11.32
2022-10-18T17:03:46.037Z,11.29
2022-10-18T17:06:21.530Z,11.26
2022-10-18T17:08:48.649Z,11.28
2022-10-18T17:11:16.305Z,11.33
2022-10-18T17:13:43.328Z,11.44
2022-10-18T17:16:36.755Z,11.37
2022-10-18T17:19:05.876Z,11.27
2022-10-18T17:21:33.472Z,11.32
2022-10-18T17:24:04.478Z,11.30
2022-10-18T17:26:31.624Z,11.28
2022-10-18T17:29:00.963Z,11.17
2022-10-18T17:31:28.738Z,10.98
2022-10-18T17:33:55.318Z,10.82
2022-10-18T17:36:22.327Z,10.71
2022-10-18T17:38:55.466Z,10.61
2022-10-18T17:41:22.361Z,10.62
2022-10-18T17:43:48.918Z,10.71
2022-10-18T17:46:15.933Z,10.81
2022-10-18T17:48:42.782Z,10.90
2022-10-18T17:51:11.517Z,10.98
2022-10-18T17:53:38.135Z,11.07
2022-10-18T17:56:05.627Z,11.08
2022-10-18T17:58:32.146Z,11.05
2022-10-18T18:01:14.801Z,10.99
2022-10-18T18:03:42.117Z,10.96
2022-10-18T18:06:16.704Z,10.83
2022-10-18T18:08:43.968Z,10.69
2022-10-18T18:11:10.328Z,10.56
2022-10-18T18:13:36.740Z,10.50
2022-10-18T18:16:20.663Z,10.46
2022-10-18T18:18:49.566Z,10.38
2022-10-18T18:21:16.418Z,10.27
2022-10-18T18:23:43.018Z,10.17
2022-10-18T18:26:09.558Z,10.09
2022-10-18T18:28:36.670Z,10.06
2022-10-18T18:31:12.744Z,10.09
2022-10-18T18:33:39.302Z,10.13
2022-10-18T18:36:06.740Z,10.17
2022-10-18T18:38:35.314Z,10.24
2022-10-18T18:41:07.204Z,10.25
2022-10-18T18:43:34.731Z,10.28
2022-10-18T18:46:01.281Z,10.26
2022-10-18T18:48:28.690Z,10.24
2022-10-18T18:50:55.255Z,10.22
2022-10-18T18:53:23.329Z,10.05
2022-10-18T18:55:52.053Z,9.87
2022-10-18T18:58:18.951Z,9.73
2022-10-18T19:00:45.515Z,9.60
2022-10-18T19:03:12.437Z,9.49
2022-10-18T19:05:38.874Z,9.46
2022-10-18T19:08:05.892Z,9.44
2022-10-18T19:10:32.384Z,9.47
2022-10-18T19:12:58.931Z,9.56
2022-10-18T19:15:25.617Z,9.57
2022-10-18T19:17:52.043Z,9.71
2022-10-18T19:20:18.472Z,9.76
2022-10-18T19:22:45.455Z,9.78
2022-10-18T19:25:11.881Z,9.91
2022-10-18T19:27:38.413Z,9.98
2022-10-18T19:30:08.680Z,9.96
2022-10-18T19:32:35.230Z,9.80
2022-10-18T19:35:01.589Z,9.72
2022-10-18T19:37:28.019Z,9.62
2022-10-18T19:39:54.372Z,9.53
2022-10-18T19:42:26.169Z,9.46
2022-10-18T19:44:53.905Z,9.40
2022-10-18T19:47:20.522Z,9.44
2022-10-18T19:49:47.953Z,9.40
2022-10-18T19:52:14.412Z,9.33
2022-10-18T19:54:40.844Z,9.25
2022-10-18T19:57:07.772Z,9.16
2022-10-18T19:59:35.942Z,9.09
2022-10-18T20:02:04.651Z,9.05
2022-10-18T20:04:34.358Z,9.08
2022-10-18T20:07:02.566Z,9.14
2022-10-18T20:09:29.158Z,9.14
2022-10-18T20:11:55.564Z,9.20
2022-10-18T20:14:21.998Z,9.27
2022-10-18T20:16:48.401Z,9.26
2022-10-18T20:19:14.796Z,9.26
2022-10-18T20:21:41.183Z,9.30
2022-10-18T20:24:07.743Z,9.35
2022-10-18T20:26:35.707Z,9.38
2022-10-18T20:29:02.397Z,9.37
2022-10-18T20:31:35.388Z,9.36
2022-10-18T20:34:04.105Z,9.36
2022-10-18T20:36:32.160Z,9.35
2022-10-18T20:38:59.390Z,9.32
2022-10-18T20:41:32.241Z,9.30
2022-10-18T20:44:04.090Z,9.32
2022-10-18T20:46:32.590Z,9.28
2022-10-18T20:48:59.187Z,9.24
2022-10-18T20:51:25.645Z,9.21
2022-10-18T20:53:52.222Z,9.20
2022-10-18T20:56:25.193Z,9.20
2022-10-18T20:58:54.902Z,9.22
2022-10-18T21:01:24.100Z,9.31
2022-10-18T21:03:52.710Z,9.36
2022-10-18T21:06:22.100Z,9.33
2022-10-18T21:08:53.650Z,9.30
2022-10-18T21:11:20.271Z,9.32
2022-10-18T21:13:51.435Z,9.36
2022-10-18T21:16:17.910Z,9.38
2022-10-18T21:18:44.335Z,9.42
2022-10-18T21:21:16.879Z,9.42
2022-10-18T21:23:43.818Z,9.39
2022-10-18T21:26:15.550Z,9.37
2022-10-18T21:28:41.968Z,9.43
2022-10-18T21:31:17.224Z,9.48
2022-10-18T21:33:45.343Z,9.49
2022-10-18T21:36:12.393Z,9.57
2022-10-18T21:38:39.083Z,9.58
2022-10-18T21:41:10.514Z,9.57
2022-10-18T21:43:40.847Z,9.63
2022-10-18T21:46:08.096Z,9.60
2022-10-18T21:48:34.778Z,9.55
2022-10-18T21:51:08.697Z,9.52
2022-10-18T21:53:36.257Z,9.48
2022-10-18T21:56:11.753Z,9.45
2022-10-18T21:58:39.090Z,9.49
2022-10-18T22:01:13.026Z,9.65
2022-10-18T22:03:40.109Z,9.81
2022-10-18T22:06:13.278Z,9.79
2022-10-18T22:08:40.953Z,9.77
2022-10-18T22:11:07.359Z,9.69
2022-10-18T22:13:33.802Z,9.65
2022-10-18T22:16:04.832Z,9.60
2022-10-18T22:18:32.252Z,9.62
2022-10-18T22:21:01.776Z,9.62
2022-10-18T22:23:39.667Z,9.61
2022-10-18T22:26:09.619Z,9.66
2022-10-18T22:28:36.132Z,9.69
2022-10-18T22:31:02.717Z,9.75
2022-10-18T22:33:29.229Z,9.80
2022-10-18T22:35:55.649Z,9.86
2022-10-18T22:38:22.122Z,9.85
2022-10-18T22:40:48.870Z,9.83
2022-10-18T22:43:15.238Z,9.83
2022-10-18T22:45:41.786Z,9.80
2022-10-18T22:48:08.150Z,9.81
2022-10-18T22:50:34.513Z,9.80
2022-10-18T22:53:00.891Z,9.77
2022-10-18T22:55:27.282Z,9.72
2022-10-18T22:57:55.441Z,9.72
2022-10-18T23:00:21.901Z,9.74
2022-10-18T23:02:51.431Z,9.77
2022-10-18T23:05:17.803Z,9.81
2022-10-18T23:07:48.114Z,9.84
2022-10-18T23:10:15.062Z,9.85
2022-10-18T23:12:41.480Z,9.86
2022-10-18T23:15:08.239Z,9.87
2022-10-18T23:17:34.835Z,9.87
2022-10-18T23:20:01.471Z,9.98
2022-10-18T23:22:27.815Z,10.05
2022-10-18T23:24:54.195Z,10.12
2022-10-18T23:27:20.543Z,10.18
2022-10-18T23:29:46.884Z,10.21
2022-10-18T23:32:13.249Z,10.19
2022-10-18T23:34:39.597Z,10.12
2022-10-18T23:37:05.940Z,10.10
2022-10-18T23:39:32.342Z,10.09
2022-10-18T23:41:58.676Z,10.04
2022-10-18T23:44:25.035Z,10.01
2022-10-18T23:46:51.407Z,9.97
2022-10-18T23:49:17.807Z,9.93
2022-10-18T23:51:44.180Z,9.89
2022-10-18T23:54:10.529Z,9.80
2022-10-18T23:56:36.869Z,9.68
2022-10-18T23:59:03.209Z,9.61
